createdAt,value
2019-03-28T00:00:45.421Z,103272.38
2019-03-28T00:03:13.269Z,103264.02
2019-03-28T00:05:41.101Z,103268.86
2019-03-28T00:08:12.312Z,103270.20
2019-03-28T00:10:38.815Z,103271.91
2019-03-28T00:13:06.630Z,103267.95
2019-03-28T00:15:34.499Z,103264.92
2019-03-28T00:18:02.401Z,103262.77
2019-03-28T00:20:30.331Z,103265.80
2019-03-28T00:23:14.207Z,103270.64
2019-03-28T00:25:41.946Z,103269.72
2019-03-28T00:28:09.725Z,103264.41
2019-03-28T00:30:37.598Z,103263.99
2019-03-28T00:33:05.384Z,103259.16
2019-03-28T00:35:33.155Z,103258.27
2019-03-28T00:38:00.925Z,103254.75
2019-03-28T00:40:28.725Z,103255.64
2019-03-28T00:42:56.725Z,103249.06
2019-03-28T00:45:24.743Z,103241.17
2019-03-28T00:47:52.469Z,103235.89
2019-03-28T00:50:20.264Z,103241.17
2019-03-28T00:52:48.065Z,103239.85
2019-03-28T00:55:15.855Z,103235.91
2019-03-28T00:57:44.108Z,103239.83
2019-03-28T01:00:12.107Z,103241.56
2019-03-28T01:02:39.854Z,103236.30
2019-03-28T01:05:07.764Z,103243.81
2019-03-28T01:07:35.494Z,103242.13
2019-03-28T01:10:03.186Z,103244.33
2019-03-28T01:12:31.006Z,103246.95
2019-03-28T01:14:58.772Z,103247.83
2019-03-28T01:17:26.567Z,103253.09
2019-03-28T01:19:54.321Z,103246.49
2019-03-28T01:22:22.133Z,103248.25
2019-03-28T01:24:49.836Z,103256.14
2019-03-28T01:27:17.850Z,103260.52
2019-03-28T01:29:45.590Z,103253.48
2019-03-28T01:32:13.383Z,103250.41
2019-03-28T01:34:41.170Z,103247.30
2019-03-28T01:37:09.006Z,103244.66
2019-03-28T01:39:36.958Z,103244.23
2019-03-28T01:42:04.716Z,103252.14
2019-03-28T01:44:32.499Z,103247.73
2019-03-28T01:47:00.280Z,103249.01
2019-03-28T01:49:28.030Z,103248.13
2019-03-28T01:51:56.243Z,103242.44
2019-03-28T01:54:24.244Z,103242.45
2019-03-28T01:56:52.085Z,103246.82
2019-03-28T01:59:19.939Z,103243.32
2019-03-28T02:01:47.708Z,103247.73
2019-03-28T02:04:15.618Z,103249.05
2019-03-28T02:06:43.534Z,103252.54
2019-03-28T02:09:11.337Z,103261.80
2019-03-28T02:11:39.217Z,103266.63
2019-03-28T02:14:06.953Z,103271.41
2019-03-28T02:16:34.726Z,103272.72
2019-03-28T02:19:02.658Z,103277.12
2019-03-28T02:21:30.391Z,103281.44
2019-03-28T02:23:58.155Z,103289.31
2019-03-28T02:26:25.986Z,103291.99
2019-03-28T02:28:53.721Z,103294.22
2019-03-28T02:31:21.474Z,103291.13
2019-03-28T02:33:49.279Z,103298.61
2019-03-28T02:36:17.035Z,103300.80
2019-03-28T02:38:44.945Z,103294.69
2019-03-28T02:41:12.756Z,103300.80
2019-03-28T02:43:40.515Z,103299.00
2019-03-28T02:46:08.274Z,103303.42
2019-03-28T02:48:36.072Z,103302.97
2019-03-28T02:51:04.178Z,103304.31
2019-03-28T02:53:32.095Z,103305.18
2019-03-28T02:55:59.882Z,103299.09
2019-03-28T02:58:27.616Z,103293.38
2019-03-28T03:00:55.436Z,103299.47
2019-03-28T03:03:23.201Z,103310.01
2019-03-28T03:05:51.209Z,103305.20
2019-03-28T03:08:18.983Z,103300.78
2019-03-28T03:10:46.795Z,103298.17
2019-03-28T03:13:14.605Z,103296.78
2019-03-28T03:15:42.380Z,103299.47
2019-03-28T03:18:10.172Z,103302.55
2019-03-28T03:20:37.969Z,103308.20
2019-03-28T03:23:05.709Z,103311.78
2019-03-28T03:25:33.460Z,103311.75
2019-03-28T03:28:01.246Z,103314.80
2019-03-28T03:30:31.376Z,103317.87
2019-03-28T03:32:58.721Z,103327.53
2019-03-28T03:35:26.493Z,103326.61
2019-03-28T03:37:55.869Z,103325.28
2019-03-28T03:40:23.990Z,103325.72
2019-03-28T03:42:51.777Z,103325.77
2019-03-28T03:45:19.586Z,103327.48
2019-03-28T03:47:47.324Z,103323.98
2019-03-28T03:50:27.392Z,103322.22
2019-03-28T03:52:55.259Z,103319.64
2019-03-28T03:55:22.992Z,103313.46
2019-03-28T03:57:50.758Z,103319.57
2019-03-28T04:00:28.097Z,103319.55
2019-03-28T04:02:55.847Z,103313.02
2019-03-28T04:05:23.617Z,103313.00
2019-03-28T04:07:51.535Z,103307.77
2019-03-28T04:10:19.297Z,103307.77
2019-03-28T04:12:47.062Z,103300.75
2019-03-28T04:15:14.844Z,103302.45
2019-03-28T04:17:42.601Z,103299.38
2019-03-28T04:20:10.450Z,103291.47
2019-03-28T04:22:38.193Z,103288.86
2019-03-28T04:25:05.940Z,103288.46
2019-03-28T04:27:33.759Z,103286.27
2019-03-28T04:30:01.545Z,103291.97
2019-03-28T04:32:29.375Z,103288.05
2019-03-28T04:34:57.171Z,103293.35
2019-03-28T04:37:25.087Z,103288.49
2019-03-28T04:39:53.490Z,103287.66
2019-03-28T04:42:21.976Z,103282.88
2019-03-28T04:44:51.440Z,103283.34
2019-03-28T04:47:19.453Z,103291.22
2019-03-28T04:49:47.628Z,103299.58
2019-03-28T04:52:15.539Z,103299.56
2019-03-28T04:54:43.395Z,103311.39
2019-03-28T04:57:11.262Z,103306.98
2019-03-28T04:59:39.056Z,103308.30
2019-03-28T05:02:06.855Z,103302.61
2019-03-28T05:04:34.732Z,103306.99
2019-03-28T05:07:02.749Z,103303.98
2019-03-28T05:09:32.954Z,103312.72
2019-03-28T05:12:00.850Z,103317.50
2019-03-28T05:14:28.731Z,103321.47
2019-03-28T05:16:56.583Z,103318.83
2019-03-28T05:19:24.479Z,103321.91
2019-03-28T05:21:52.357Z,103319.69
2019-03-28T05:24:20.290Z,103317.89
2019-03-28T05:26:48.150Z,103320.55
2019-03-28T05:29:16.167Z,103328.02
2019-03-28T05:31:44.348Z,103329.38
2019-03-28T05:34:12.217Z,103329.88
2019-03-28T05:36:40.296Z,103333.84
2019-03-28T05:39:08.190Z,103340.85
2019-03-28T05:41:35.904Z,103340.43
2019-03-28T05:44:03.705Z,103343.02
2019-03-28T05:46:31.606Z,103348.69
2019-03-28T05:48:59.417Z,103349.44
2019-03-28T05:51:27.185Z,103351.16
2019-03-28T05:53:55.139Z,103345.41
2019-03-28T05:56:22.892Z,103345.82
2019-03-28T05:58:50.768Z,103345.77
2019-03-28T06:01:18.554Z,103345.33
2019-03-28T06:03:46.502Z,103351.50
2019-03-28T06:06:14.369Z,103355.51
2019-03-28T06:08:42.222Z,103357.29
2019-03-28T06:11:10.192Z,103358.58
2019-03-28T06:13:38.069Z,103365.55
2019-03-28T06:16:05.883Z,103367.70
2019-03-28T06:18:33.879Z,103368.61
2019-03-28T06:21:01.686Z,103363.77
2019-03-28T06:23:29.541Z,103367.77
2019-03-28T06:25:57.377Z,103378.30
2019-03-28T06:28:25.461Z,103382.29
2019-03-28T06:30:55.802Z,103381.91
2019-03-28T06:33:23.189Z,103379.77
2019-03-28T06:35:51.055Z,103389.08
2019-03-28T06:38:18.883Z,103385.63
2019-03-28T06:40:47.009Z,103389.13
2019-03-28T06:43:14.906Z,103396.61
2019-03-28T06:45:42.773Z,103393.52
2019-03-28T06:48:10.686Z,103392.69
2019-03-28T06:50:38.479Z,103397.16
2019-03-28T06:53:06.409Z,103398.48
2019-03-28T06:55:36.782Z,103396.72
2019-03-28T06:58:04.108Z,103395.45
2019-03-28T07:00:31.928Z,103395.02
2019-03-28T07:02:59.628Z,103391.09
2019-03-28T07:05:27.631Z,103394.58
2019-03-28T07:07:55.403Z,103397.64
2019-03-28T07:10:23.146Z,103398.52
2019-03-28T07:12:50.937Z,103400.73
2019-03-28T07:15:18.710Z,103398.94
2019-03-28T07:17:47.030Z,103400.73
2019-03-28T07:20:16.627Z,103408.61
2019-03-28T07:22:45.963Z,103407.34
2019-03-28T07:25:14.242Z,103403.84
2019-03-28T07:27:42.134Z,103407.30
2019-03-28T07:30:09.969Z,103402.91
2019-03-28T07:32:37.915Z,103411.24
2019-03-28T07:35:05.974Z,103408.63
2019-03-28T07:37:33.846Z,103418.69
2019-03-28T07:40:01.645Z,103420.45
2019-03-28T07:42:29.503Z,103415.66
2019-03-28T07:44:58.122Z,103415.26
2019-03-28T07:47:26.327Z,103421.03
2019-03-28T07:49:54.295Z,103418.42
2019-03-28T07:52:22.602Z,103420.59
2019-03-28T07:54:50.397Z,103421.52
2019-03-28T07:57:18.158Z,103423.73
2019-03-28T07:59:45.959Z,103421.08
2019-03-28T08:02:13.754Z,103421.53
2019-03-28T08:04:41.562Z,103416.25
2019-03-28T08:07:09.387Z,103423.30
2019-03-28T08:09:37.233Z,103429.06
2019-03-28T08:12:05.070Z,103427.74
2019-03-28T08:14:32.874Z,103427.31
2019-03-28T08:17:00.697Z,103423.36
2019-03-28T08:19:28.454Z,103428.19
2019-03-28T08:21:56.230Z,103428.19
2019-03-28T08:24:24.024Z,103430.37
2019-03-28T08:26:51.814Z,103433.41
2019-03-28T08:29:19.528Z,103432.09
2019-03-28T08:31:48.629Z,103432.53
2019-03-28T08:34:16.437Z,103430.36
2019-03-28T08:36:44.450Z,103431.20
2019-03-28T08:39:12.245Z,103430.77
2019-03-28T08:41:39.978Z,103431.65
2019-03-28T08:44:07.815Z,103440.41
2019-03-28T08:46:35.568Z,103437.80
2019-03-28T08:49:03.301Z,103443.95
2019-03-28T08:51:31.461Z,103439.13
2019-03-28T08:54:00.233Z,103436.08
2019-03-28T08:56:28.006Z,103444.86
2019-03-28T08:58:55.806Z,103449.72
2019-03-28T09:01:23.809Z,103454.14
2019-03-28T09:03:51.686Z,103451.52
2019-03-28T09:06:19.481Z,103452.41
2019-03-28T09:08:47.304Z,103449.38
2019-03-28T09:11:15.056Z,103452.89
2019-03-28T09:13:42.866Z,103465.64
2019-03-28T09:16:10.614Z,103467.48
2019-03-28T09:18:38.423Z,103468.38
2019-03-28T09:21:06.285Z,103471.45
2019-03-28T09:23:34.169Z,103475.80
2019-03-28T09:26:04.325Z,103474.47
2019-03-28T09:28:31.633Z,103480.18
2019-03-28T09:30:59.461Z,103485.45
2019-03-28T09:33:27.299Z,103488.13
2019-03-28T09:35:55.247Z,103492.05
2019-03-28T09:38:23.004Z,103487.66
2019-03-28T09:40:50.933Z,103492.07
2019-03-28T09:43:18.769Z,103495.14
2019-03-28T09:45:46.530Z,103485.47
2019-03-28T09:48:14.342Z,103485.50
2019-03-28T09:50:42.078Z,103479.83
2019-03-28T09:53:09.854Z,103478.54
2019-03-28T09:55:37.663Z,103482.11
2019-03-28T09:58:05.483Z,103482.20
2019-03-28T10:00:34.562Z,103490.61
2019-03-28T10:03:02.618Z,103498.88
2019-03-28T10:05:30.368Z,103497.56
2019-03-28T10:07:58.234Z,103497.24
2019-03-28T10:10:26.005Z,103491.09
2019-03-28T10:12:53.747Z,103498.55
2019-03-28T10:15:21.534Z,103498.88
2019-03-28T10:17:49.406Z,103505.02
2019-03-28T10:20:17.387Z,103500.17
2019-03-28T10:22:45.185Z,103501.47
2019-03-28T10:25:14.587Z,103501.95
2019-03-28T10:27:42.556Z,103498.05
2019-03-28T10:30:10.351Z,103497.20
2019-03-28T10:32:38.181Z,103495.97
2019-03-28T10:35:07.147Z,103493.81
2019-03-28T10:37:35.078Z,103496.52
2019-03-28T10:40:03.125Z,103497.84
2019-03-28T10:42:30.932Z,103496.52
2019-03-28T10:44:58.904Z,103498.23
2019-03-28T10:47:27.291Z,103491.63
2019-03-28T10:49:55.252Z,103489.91
2019-03-28T10:52:23.150Z,103498.28
2019-03-28T10:54:50.962Z,103494.77
2019-03-28T10:57:29.386Z,103503.53
2019-03-28T10:59:48.462Z,103502.20
2019-03-28T11:02:16.249Z,103498.72
2019-03-28T11:04:44.045Z,103498.75
2019-03-28T11:07:11.799Z,103494.84
2019-03-28T11:09:39.760Z,103494.84
2019-03-28T11:12:07.557Z,103502.74
2019-03-28T11:14:35.449Z,103498.31
2019-03-28T11:17:03.513Z,103501.86
2019-03-28T11:19:31.415Z,103503.58
2019-03-28T11:21:59.362Z,103503.11
2019-03-28T11:24:27.186Z,103510.45
2019-03-28T11:26:54.973Z,103506.45
2019-03-28T11:29:22.901Z,103510.43
2019-03-28T11:31:52.490Z,103510.87
2019-03-28T11:34:22.622Z,103514.84
2019-03-28T11:36:53.807Z,103515.72
2019-03-28T11:39:25.052Z,103513.97
2019-03-28T11:41:53.001Z,103513.97
2019-03-28T11:44:20.871Z,103512.66
2019-03-28T11:46:48.726Z,103515.33
2019-03-28T11:49:16.646Z,103514.86
2019-03-28T11:51:44.450Z,103521.03
2019-03-28T11:54:12.346Z,103519.27
2019-03-28T11:56:40.220Z,103519.30
2019-03-28T11:59:08.065Z,103513.59
2019-03-28T12:01:35.846Z,103507.45
2019-03-28T12:04:03.636Z,103511.87
2019-03-28T12:06:31.542Z,103500.48
2019-03-28T12:08:59.388Z,103502.69
2019-03-28T12:11:27.277Z,103510.61
2019-03-28T12:13:55.244Z,103507.52
2019-03-28T12:16:23.006Z,103507.50
2019-03-28T12:18:50.911Z,103510.57
2019-03-28T12:21:18.777Z,103507.04
2019-03-28T12:23:47.686Z,103507.06
2019-03-28T12:26:15.454Z,103500.48
2019-03-28T12:28:43.250Z,103498.75
2019-03-28T12:31:11.087Z,103495.72
2019-03-28T12:33:38.800Z,103494.44
2019-03-28T12:36:06.595Z,103494.88
2019-03-28T12:38:34.405Z,103489.62
2019-03-28T12:41:02.299Z,103488.73
2019-03-28T12:43:30.175Z,103490.48
2019-03-28T12:46:00.601Z,103486.52
2019-03-28T12:48:28.782Z,103484.38
2019-03-28T12:51:00.861Z,103485.73
2019-03-28T12:53:31.781Z,103223.81
2019-03-28T12:56:00.204Z,103482.67
2019-03-28T12:58:28.088Z,103477.41
2019-03-28T13:00:57.288Z,103480.87
2019-03-28T13:03:54.550Z,103480.41
2019-03-28T13:06:30.295Z,103476.94
2019-03-28T13:09:05.056Z,103478.22
2019-03-28T13:11:38.494Z,103479.09
2019-03-28T13:14:06.362Z,103483.02
2019-03-28T13:16:36.147Z,103485.23
2019-03-28T13:19:08.757Z,103481.22
2019-03-28T13:21:41.783Z,103479.03
2019-03-28T13:24:09.777Z,103477.74
2019-03-28T13:26:37.682Z,103476.94
2019-03-28T13:29:05.565Z,103476.94
2019-03-28T13:31:33.421Z,103484.43
2019-03-28T13:34:01.498Z,103473.89
2019-03-28T13:36:29.331Z,103472.57
2019-03-28T13:38:57.131Z,103473.89
2019-03-28T13:41:24.854Z,103475.22
2019-03-28T13:43:52.860Z,103476.10
2019-03-28T13:46:20.589Z,103476.55
2019-03-28T13:48:48.355Z,103471.69
2019-03-28T13:51:16.165Z,103471.69
2019-03-28T13:53:43.969Z,103466.86
2019-03-28T13:56:11.739Z,103469.94
2019-03-28T13:58:39.641Z,103472.57
2019-03-28T14:01:07.391Z,103471.72
2019-03-28T14:03:35.224Z,103467.31
2019-03-28T14:06:02.939Z,103461.61
2019-03-28T14:08:30.726Z,103464.68
2019-03-28T14:10:58.566Z,103466.86
2019-03-28T14:13:26.347Z,103473.86
2019-03-28T14:15:54.992Z,103467.70
2019-03-28T14:18:22.873Z,103470.34
2019-03-28T14:20:50.625Z,103461.52
2019-03-28T14:23:18.631Z,103461.52
2019-03-28T14:25:46.652Z,103462.84
2019-03-28T14:28:14.449Z,103468.55
2019-03-28T14:30:42.211Z,103469.03
2019-03-28T14:33:11.632Z,103465.52
2019-03-28T14:35:39.692Z,103458.05
2019-03-28T14:38:07.495Z,103458.91
2019-03-28T14:40:35.226Z,103463.30
2019-03-28T14:43:03.196Z,103463.30
2019-03-28T14:45:30.982Z,103461.09
2019-03-28T14:47:58.729Z,103462.42
2019-03-28T14:50:36.855Z,103458.03
2019-03-28T14:53:04.638Z,103459.38
2019-03-28T14:55:32.640Z,103461.15
2019-03-28T14:58:00.433Z,103459.39
2019-03-28T15:00:53.279Z,103455.00
2019-03-28T15:03:26.373Z,103460.71
2019-03-28T15:05:50.869Z,103453.66
2019-03-28T15:08:18.989Z,103461.11
2019-03-28T15:10:46.812Z,103458.45
2019-03-28T15:13:14.569Z,103458.44
2019-03-28T15:15:42.344Z,103456.22
2019-03-28T15:18:10.160Z,103451.83
2019-03-28T15:20:37.946Z,103450.53
2019-03-28T15:23:05.661Z,103453.61
2019-03-28T15:25:33.421Z,103449.20
2019-03-28T15:28:01.193Z,103450.05
2019-03-28T15:30:29.820Z,103444.77
2019-03-28T15:32:57.801Z,103442.17
2019-03-28T15:35:25.531Z,103436.93
2019-03-28T15:37:53.331Z,103440.90
2019-03-28T15:40:21.083Z,103437.83
2019-03-28T15:42:49.041Z,103436.48
2019-03-28T15:45:17.031Z,103441.77
2019-03-28T15:47:44.946Z,103440.00
2019-03-28T15:50:12.699Z,103435.16
2019-03-28T15:52:40.448Z,103444.38
2019-03-28T15:55:08.218Z,103437.78
2019-03-28T15:57:36.012Z,103434.23
2019-03-28T16:00:04.357Z,103439.50
2019-03-28T16:02:32.052Z,103446.53
2019-03-28T16:04:59.879Z,103449.13
2019-03-28T16:07:29.442Z,103441.67
2019-03-28T16:09:59.649Z,103444.28
2019-03-28T16:12:28.481Z,103451.71
2019-03-28T16:14:56.239Z,103454.77
2019-03-28T16:17:23.950Z,103453.86
2019-03-28T16:19:51.992Z,103451.22
2019-03-28T16:22:19.787Z,103451.66
2019-03-28T16:24:47.521Z,103453.38
2019-03-28T16:27:15.306Z,103454.26
2019-03-28T16:29:43.070Z,103453.80
2019-03-28T16:32:10.891Z,103453.37
2019-03-28T16:34:38.709Z,103450.70
2019-03-28T16:37:06.595Z,103446.30
2019-03-28T16:39:34.337Z,103448.53
2019-03-28T16:42:02.176Z,103455.54
2019-03-28T16:44:29.950Z,103450.27
2019-03-28T16:46:57.928Z,103451.56
2019-03-28T16:49:25.639Z,103451.11
2019-03-28T16:51:53.379Z,103451.98
2019-03-28T16:54:21.127Z,103455.86
2019-03-28T16:56:48.931Z,103457.23
2019-03-28T16:59:16.670Z,103462.01
2019-03-28T17:01:44.410Z,103461.13
2019-03-28T17:04:20.705Z,103460.22
2019-03-28T17:06:41.816Z,103462.41
2019-03-28T17:09:09.831Z,103461.97
2019-03-28T17:11:38.041Z,103468.55
2019-03-28T17:14:05.862Z,103471.58
2019-03-28T17:16:33.585Z,103469.83
2019-03-28T17:19:01.346Z,103480.36
2019-03-28T17:21:29.078Z,103478.16
2019-03-28T17:23:56.823Z,103477.27
2019-03-28T17:26:24.585Z,103475.93
2019-03-28T17:28:52.372Z,103480.31
2019-03-28T17:31:20.128Z,103478.10
2019-03-28T17:33:47.911Z,103481.16
2019-03-28T17:36:15.725Z,103479.39
2019-03-28T17:38:43.493Z,103482.91
2019-03-28T17:41:11.249Z,103480.70
2019-03-28T17:43:39.079Z,103480.23
2019-03-28T17:46:06.816Z,103486.39
2019-03-28T17:48:34.563Z,103478.47
2019-03-28T17:51:02.372Z,103477.13
2019-03-28T17:53:30.127Z,103477.11
2019-03-28T17:55:57.867Z,103482.84
2019-03-28T17:58:25.598Z,103485.00
2019-03-28T18:00:53.549Z,103490.27
2019-03-28T18:03:31.099Z,103486.32
2019-03-28T18:05:57.939Z,103485.48
2019-03-28T18:08:24.865Z,103487.69
2019-03-28T18:10:55.885Z,103490.73
2019-03-28T18:13:36.619Z,103492.08
2019-03-28T18:16:17.912Z,103500.45
2019-03-28T18:18:48.517Z,103497.80
2019-03-28T18:21:16.362Z,103500.46
2019-03-28T18:23:46.389Z,103504.03
2019-03-28T18:26:14.199Z,103507.98
2019-03-28T18:28:42.221Z,103507.05
2019-03-28T18:31:15.511Z,103502.16
2019-03-28T18:33:44.109Z,103502.60
2019-03-28T18:36:11.895Z,103498.19
2019-03-28T18:38:39.659Z,103494.23
2019-03-28T18:41:07.380Z,103496.02
2019-03-28T18:43:35.162Z,103500.00
2019-03-28T18:46:02.977Z,103501.30
2019-03-28T18:48:36.137Z,103495.16
2019-03-28T18:51:00.372Z,103490.80
2019-03-28T18:53:28.156Z,103497.34
2019-03-28T18:55:59.544Z,103496.88
2019-03-28T18:59:31.146Z,103499.52
2019-03-28T19:02:14.342Z,103501.27
2019-03-28T19:05:19.229Z,103493.38
2019-03-28T19:07:38.252Z,103498.66
2019-03-28T19:10:11.857Z,103498.64
2019-03-28T19:12:41.776Z,103499.09
2019-03-28T19:15:13.580Z,103502.14
2019-03-28T19:17:44.734Z,103499.11
2019-03-28T19:20:49.227Z,103502.59
2019-03-28T19:23:22.195Z,103500.44
2019-03-28T19:25:51.465Z,103500.45
2019-03-28T19:28:28.991Z,103500.46
2019-03-28T19:31:04.889Z,103504.86
2019-03-28T19:33:41.876Z,103505.70
2019-03-28T19:36:37.627Z,103501.37
2019-03-28T19:39:34.142Z,103502.22
2019-03-28T19:42:17.826Z,103509.67
2019-03-28T19:45:31.586Z,103510.98
2019-03-28T19:48:00.954Z,103514.50
2019-03-28T19:50:29.476Z,103510.98
2019-03-28T19:52:58.628Z,103502.70
2019-03-28T19:55:26.393Z,103509.76
2019-03-28T19:57:54.149Z,103502.70
2019-03-28T20:00:21.940Z,103504.89
2019-03-28T20:03:00.220Z,103514.98
2019-03-28T20:05:29.537Z,103508.84
2019-03-28T20:07:59.705Z,103504.87
2019-03-28T20:10:30.067Z,103511.92
2019-03-28T20:13:00.154Z,103508.86
2019-03-28T20:15:30.451Z,103513.71
2019-03-28T20:17:59.824Z,103508.84
2019-03-28T20:20:29.457Z,103518.50
2019-03-28T20:23:02.937Z,103522.88
2019-03-28T20:25:32.749Z,103522.03
2019-03-28T20:28:14.531Z,103519.81
2019-03-28T20:30:45.037Z,103524.23
2019-03-28T20:33:17.170Z,103522.45
2019-03-28T20:36:05.750Z,103525.95
2019-03-28T20:38:20.496Z,103525.08
2019-03-28T20:40:58.373Z,103527.70
2019-03-28T20:43:40.429Z,103529.91
2019-03-28T20:46:10.908Z,103531.66
2019-03-28T20:48:43.736Z,103538.23
2019-03-28T20:51:11.639Z,103534.75
2019-03-28T20:53:39.435Z,103531.63
2019-03-28T20:56:07.195Z,103529.85
2019-03-28T20:58:35.008Z,103531.15
2019-03-28T21:01:03.051Z,103535.99
2019-03-28T21:03:30.788Z,103538.14
2019-03-28T21:05:58.565Z,103530.64
2019-03-28T21:08:26.283Z,103533.30
2019-03-28T21:10:54.010Z,103528.47
2019-03-28T21:13:21.758Z,103527.16
2019-03-28T21:15:49.537Z,103533.76
2019-03-28T21:18:17.340Z,103531.08
2019-03-28T21:20:45.110Z,103533.72
2019-03-28T21:23:12.981Z,103539.85
2019-03-28T21:25:40.835Z,103538.56
2019-03-28T21:28:08.553Z,103546.02
2019-03-28T21:30:46.701Z,103535.04
2019-03-28T21:33:06.054Z,103535.88
2019-03-28T21:35:33.827Z,103535.04
2019-03-28T21:38:01.589Z,103534.56
2019-03-28T21:40:29.299Z,103534.17
2019-03-28T21:42:57.151Z,103524.06
2019-03-28T21:45:24.923Z,103520.55
2019-03-28T21:47:52.700Z,103528.49
2019-03-28T21:50:21.547Z,103527.59
2019-03-28T21:52:49.341Z,103523.19
2019-03-28T21:55:17.156Z,103515.77
2019-03-28T21:57:44.946Z,103521.42
2019-03-28T22:00:12.735Z,103525.40
2019-03-28T22:02:40.500Z,103535.51
2019-03-28T22:05:08.232Z,103528.44
2019-03-28T22:07:36.027Z,103523.64
2019-03-28T22:10:04.608Z,103520.98
2019-03-28T22:12:32.427Z,103524.06
2019-03-28T22:15:00.351Z,103517.91
2019-03-28T22:17:28.328Z,103512.64
2019-03-28T22:19:56.128Z,103514.80
2019-03-28T22:22:23.890Z,103509.53
2019-03-28T22:24:51.662Z,103513.94
2019-03-28T22:27:19.437Z,103516.12
2019-03-28T22:29:47.281Z,103510.80
2019-03-28T22:32:15.042Z,103508.61
2019-03-28T22:34:42.813Z,103510.80
2019-03-28T22:37:10.592Z,103510.35
2019-03-28T22:39:39.059Z,103505.05
2019-03-28T22:42:07.088Z,103498.91
2019-03-28T22:44:34.834Z,103498.91
2019-03-28T22:47:02.571Z,103493.63
2019-03-28T22:49:30.310Z,103497.11
2019-03-28T22:51:58.226Z,103494.05
2019-03-28T22:54:25.953Z,103487.03
2019-03-28T22:56:53.686Z,103493.16
2019-03-28T22:59:21.435Z,103482.66
2019-03-28T23:01:49.195Z,103484.84
2019-03-28T23:04:16.978Z,103479.16
2019-03-28T23:06:44.726Z,103478.28
2019-03-28T23:09:12.561Z,103474.73
2019-03-28T23:11:40.717Z,103474.31
2019-03-28T23:14:08.885Z,103477.80
2019-03-28T23:16:36.669Z,103471.64
2019-03-28T23:19:04.421Z,103469.45
2019-03-28T23:21:32.189Z,103474.73
2019-03-28T23:23:59.969Z,103479.11
2019-03-28T23:26:27.753Z,103474.73
2019-03-28T23:28:55.627Z,103472.59
2019-03-28T23:31:23.387Z,103468.27
2019-03-28T23:33:51.097Z,103473.05
2019-03-28T23:36:18.911Z,103469.98
2019-03-28T23:38:46.666Z,103473.50
2019-03-28T23:41:14.384Z,103465.12
2019-03-28T23:43:42.178Z,103468.16
2019-03-28T23:46:09.930Z,103466.88
2019-03-28T23:48:37.729Z,103460.30
2019-03-28T23:51:05.470Z,103459.05
2019-03-28T23:53:33.301Z,103454.25
2019-03-28T23:56:01.127Z,103459.43
2019-03-28T23:58:28.831Z,103452.39
